createdAt,value
2019-05-19T00:00:39.302Z,6.37
2019-05-19T00:03:10.919Z,6.78
2019-05-19T00:05:42.765Z,7.95
2019-05-19T00:10:45.299Z,7.75
2019-05-19T00:13:17.595Z,7.25
2019-05-19T00:15:49.337Z,6.53
2019-05-19T00:18:21.298Z,6.92
2019-05-19T00:20:53.054Z,7.05
2019-05-19T00:23:24.765Z,6.40
2019-05-19T00:28:27.397Z,7.03
2019-05-19T00:30:59.298Z,6.78
2019-05-19T00:33:31.302Z,6.58
2019-05-19T00:36:03.019Z,8.08
2019-05-19T00:38:34.760Z,6.80
2019-05-19T00:41:06.771Z,6.60
2019-05-19T00:46:09.314Z,7.03
2019-05-19T00:48:41.061Z,7.15
2019-05-19T00:51:12.751Z,7.55
2019-05-19T00:56:15.297Z,7.10
2019-05-19T00:58:47.372Z,7.17
2019-05-19T01:01:19.035Z,7.53
2019-05-19T01:03:51.311Z,8.20
2019-05-19T01:06:23.418Z,7.65
2019-05-19T01:08:55.066Z,7.53
2019-05-19T01:11:26.768Z,8.40
2019-05-19T01:16:29.307Z,7.33
2019-05-19T01:19:01.306Z,7.75
2019-05-19T01:21:33.536Z,7.87
2019-05-19T01:24:05.745Z,6.78
2019-05-19T01:29:08.748Z,6.90
2019-05-19T01:31:40.357Z,7.67
2019-05-19T01:34:12.309Z,7.78
2019-05-19T01:36:44.014Z,7.67
2019-05-19T01:39:15.768Z,7.42
2019-05-19T01:44:18.313Z,8.33
2019-05-19T01:46:49.865Z,7.45
2019-05-19T01:49:21.447Z,8.15
2019-05-19T01:51:53.312Z,7.95
2019-05-19T01:54:24.854Z,7.60
2019-05-19T01:56:56.735Z,7.72
2019-05-19T02:01:59.479Z,7.00
2019-05-19T02:04:31.038Z,7.20
2019-05-19T02:07:02.745Z,7.95
2019-05-19T02:12:05.593Z,7.20
2019-05-19T02:14:37.307Z,7.80
2019-05-19T02:17:08.996Z,8.05
2019-05-19T02:19:40.371Z,8.20
2019-05-19T02:22:12.292Z,8.25
2019-05-19T02:24:43.984Z,8.10
2019-05-19T02:27:15.750Z,7.90
2019-05-19T02:32:17.990Z,7.15
2019-05-19T02:34:49.759Z,8.23
2019-05-19T02:39:52.367Z,8.38
2019-05-19T02:42:24.038Z,7.85
2019-05-19T02:44:55.752Z,7.70
2019-05-19T02:47:27.691Z,9.33
2019-05-19T02:52:30.509Z,8.83
2019-05-19T02:55:02.611Z,7.50
2019-05-19T03:00:07.751Z,7.65
2019-05-19T03:02:39.570Z,7.58
2019-05-19T03:05:11.284Z,7.80
2019-05-19T03:07:43.094Z,7.15
2019-05-19T03:10:14.774Z,7.85
2019-05-19T03:12:46.338Z,7.40
2019-05-19T03:15:17.899Z,7.25
2019-05-19T03:17:49.348Z,9.43
2019-05-19T03:20:21.026Z,9.28
2019-05-19T03:22:52.737Z,8.85
2019-05-19T03:27:55.409Z,9.50
2019-05-19T03:30:45.320Z,8.05
2019-05-19T03:33:20.347Z,10.45
2019-05-19T03:35:51.903Z,8.03
2019-05-19T03:38:23.700Z,7.75
2019-05-19T03:43:26.404Z,8.68
2019-05-19T03:45:58.301Z,8.35
2019-05-19T03:48:29.998Z,8.53
2019-05-19T03:51:01.736Z,8.43
2019-05-19T03:53:33.577Z,7.92
2019-05-19T03:56:04.611Z,8.10
2019-05-19T03:58:36.245Z,8.48
2019-05-19T04:01:08.354Z,8.75
2019-05-19T04:03:40.373Z,9.03
2019-05-19T04:06:12.614Z,9.45
2019-05-19T04:08:44.405Z,9.35
2019-05-19T04:11:16.059Z,7.90
2019-05-19T04:13:47.864Z,8.98
2019-05-19T04:16:19.638Z,8.63
2019-05-19T04:18:51.616Z,9.58
2019-05-19T04:21:23.525Z,8.48
2019-05-19T04:23:55.597Z,8.05
2019-05-19T04:26:27.342Z,8.10
2019-05-19T04:28:59.267Z,8.85
2019-05-19T04:31:31.011Z,8.15
2019-05-19T04:34:02.739Z,8.35
2019-05-19T04:39:06.988Z,9.43
2019-05-19T04:41:40.316Z,9.10
2019-05-19T04:44:12.370Z,8.65
2019-05-19T04:46:44.297Z,9.05
2019-05-19T04:49:15.982Z,9.33
2019-05-19T04:52:05.208Z,8.80
2019-05-19T04:54:21.303Z,8.90
2019-05-19T04:56:52.882Z,8.90
2019-05-19T04:59:24.372Z,9.13
2019-05-19T05:01:56.065Z,15.45
2019-05-19T05:04:29.526Z,9.35
2019-05-19T05:07:01.406Z,8.88
2019-05-19T05:09:33.071Z,8.63
2019-05-19T05:12:04.771Z,9.03
2019-05-19T05:17:07.303Z,8.88
2019-05-19T05:19:39.307Z,8.50
2019-05-19T05:22:21.756Z,8.78
2019-05-19T05:24:44.742Z,8.80
2019-05-19T05:27:16.746Z,9.60
2019-05-19T05:32:19.056Z,8.68
2019-05-19T05:34:50.767Z,8.70
2019-05-19T05:39:53.026Z,9.23
2019-05-19T05:42:24.770Z,8.70
2019-05-19T05:47:27.053Z,9.08
2019-05-19T05:49:58.748Z,8.93
2019-05-19T05:52:38.484Z,9.10
2019-05-19T05:55:03.746Z,10.00
2019-05-19T06:00:06.709Z,9.65
2019-05-19T06:05:09.362Z,8.95
2019-05-19T06:07:41.623Z,11.00
2019-05-19T06:10:13.333Z,11.30
2019-05-19T06:12:45.063Z,11.10
2019-05-19T06:15:16.862Z,10.25
2019-05-19T06:17:48.332Z,10.23
2019-05-19T06:20:20.059Z,9.45
2019-05-19T06:22:56.625Z,10.23
2019-05-19T06:25:25.581Z,10.15
2019-05-19T06:30:28.068Z,10.53
2019-05-19T06:33:01.410Z,10.30
2019-05-19T06:35:33.441Z,10.13
2019-05-19T06:38:05.062Z,10.08
2019-05-19T06:40:36.754Z,9.83
2019-05-19T06:43:08.349Z,11.10
2019-05-19T06:45:40.313Z,9.98
2019-05-19T06:48:12.581Z,11.10
2019-05-19T06:50:44.334Z,11.08
2019-05-19T06:53:15.892Z,9.93
2019-05-19T06:55:47.838Z,10.25
2019-05-19T06:58:19.575Z,10.60
2019-05-19T07:00:51.292Z,10.35
2019-05-19T07:03:22.854Z,9.50
2019-05-19T07:05:54.615Z,11.70
2019-05-19T07:08:26.273Z,11.45
2019-05-19T07:10:57.887Z,11.75
2019-05-19T07:13:29.385Z,10.90
2019-05-19T07:16:01.138Z,10.43
2019-05-19T07:18:32.771Z,9.93
2019-05-19T07:23:35.374Z,8.90
2019-05-19T07:26:07.061Z,10.38
2019-05-19T07:28:38.763Z,9.83
2019-05-19T07:33:41.819Z,9.63
2019-05-19T07:36:13.414Z,11.20
2019-05-19T07:38:45.280Z,9.78
2019-05-19T07:41:17.399Z,10.03
2019-05-19T07:43:49.036Z,8.60
2019-05-19T07:46:20.790Z,9.35
2019-05-19T07:48:57.544Z,8.53
2019-05-19T07:51:29.306Z,9.40
2019-05-19T07:54:01.261Z,9.38
2019-05-19T07:56:33.053Z,9.75
2019-05-19T07:59:07.889Z,9.10
2019-05-19T08:01:39.305Z,9.70
2019-05-19T08:04:10.797Z,9.40
2019-05-19T08:06:42.782Z,9.05
2019-05-19T08:11:50.519Z,8.68
2019-05-19T08:14:22.304Z,8.88
2019-05-19T08:16:54.316Z,10.05
2019-05-19T08:19:26.321Z,10.15
2019-05-19T08:21:57.889Z,9.70
2019-05-19T08:24:29.784Z,10.38
2019-05-19T08:27:02.147Z,10.63
2019-05-19T08:29:34.296Z,9.73
2019-05-19T08:32:05.783Z,9.30
2019-05-19T08:34:37.380Z,9.85
2019-05-19T08:37:09.356Z,10.82
2019-05-19T08:39:41.724Z,10.03
2019-05-19T08:44:44.426Z,10.18
2019-05-19T08:47:16.269Z,9.23
2019-05-19T08:49:47.841Z,10.03
2019-05-19T08:52:19.773Z,10.53
2019-05-19T08:57:22.308Z,9.73
2019-05-19T08:59:54.622Z,9.98
2019-05-19T09:04:57.365Z,9.63
2019-05-19T09:07:29.345Z,9.20
2019-05-19T09:10:01.611Z,9.53
2019-05-19T09:12:33.495Z,8.80
2019-05-19T09:15:05.591Z,8.75
2019-05-19T09:17:37.477Z,9.40
2019-05-19T09:20:09.823Z,8.78
2019-05-19T09:22:41.618Z,8.63
2019-05-19T09:27:44.363Z,8.65
2019-05-19T09:30:16.267Z,8.40
2019-05-19T09:32:48.633Z,10.60
2019-05-19T09:35:20.794Z,10.03
2019-05-19T09:40:26.397Z,8.55
2019-05-19T09:42:56.893Z,8.23
2019-05-19T09:45:28.434Z,8.75
2019-05-19T09:48:00.277Z,8.05
2019-05-19T09:50:31.819Z,8.03
2019-05-19T09:53:03.906Z,8.03
2019-05-19T09:55:35.785Z,8.33
2019-05-19T09:58:07.745Z,8.50
2019-05-19T10:03:10.037Z,8.40
2019-05-19T10:05:41.748Z,7.87
2019-05-19T10:11:45.423Z,8.75
2019-05-19T10:14:17.042Z,8.68
2019-05-19T10:16:48.885Z,8.20
2019-05-19T10:20:47.128Z,8.10
2019-05-19T10:25:51.826Z,8.13
2019-05-19T10:28:23.757Z,8.15
2019-05-19T10:33:26.309Z,8.55
2019-05-19T10:35:57.841Z,8.90
2019-05-19T10:38:29.426Z,8.25
2019-05-19T10:41:01.287Z,8.93
2019-05-19T10:43:33.264Z,8.90
2019-05-19T10:46:04.986Z,8.75
2019-05-19T10:48:37.320Z,8.60
2019-05-19T10:51:09.293Z,8.75
2019-05-19T10:53:40.890Z,7.72
2019-05-19T10:56:12.743Z,8.23
2019-05-19T11:01:15.636Z,8.73
2019-05-19T11:03:47.359Z,8.85
2019-05-19T11:06:19.310Z,8.28
2019-05-19T11:08:50.906Z,8.18
2019-05-19T11:11:22.807Z,8.33
2019-05-19T11:13:55.012Z,8.33
2019-05-19T11:16:26.765Z,8.30
2019-05-19T11:21:44.826Z,7.47
2019-05-19T11:24:16.829Z,8.00
2019-05-19T11:26:49.675Z,7.92
2019-05-19T11:29:24.362Z,8.20
2019-05-19T11:31:56.772Z,7.35
2019-05-19T11:34:28.775Z,8.73
2019-05-19T11:37:00.423Z,8.00
2019-05-19T11:39:34.733Z,8.40
2019-05-19T11:42:06.765Z,8.08
2019-05-19T11:44:38.486Z,8.10
2019-05-19T11:47:10.740Z,11.50
2019-05-19T11:52:14.389Z,13.08
2019-05-19T11:54:46.399Z,12.73
2019-05-19T11:57:18.296Z,13.10
2019-05-19T11:59:50.306Z,11.33
2019-05-19T12:02:22.298Z,7.17
2019-05-19T12:04:54.841Z,9.05
2019-05-19T12:07:26.818Z,11.03
2019-05-19T12:09:58.737Z,11.73
2019-05-19T12:15:04.885Z,8.78
2019-05-19T12:17:36.755Z,7.80
2019-05-19T12:22:53.166Z,10.20
2019-05-19T12:25:24.901Z,9.05
2019-05-19T12:27:57.379Z,7.05
2019-05-19T12:30:29.415Z,7.72
2019-05-19T12:33:01.462Z,9.23
2019-05-19T12:35:33.383Z,8.38
2019-05-19T12:38:05.304Z,7.75
2019-05-19T12:40:36.856Z,7.95
2019-05-19T12:43:08.629Z,6.62
2019-05-19T12:48:11.265Z,7.12
2019-05-19T12:50:42.711Z,10.05
2019-05-19T12:55:45.301Z,6.92
2019-05-19T12:58:17.304Z,7.65
2019-05-19T13:00:53.685Z,8.03
2019-05-19T13:05:56.297Z,7.47
2019-05-19T13:08:28.302Z,7.83
2019-05-19T13:11:00.354Z,6.35
2019-05-19T13:13:32.447Z,8.65
2019-05-19T13:16:04.311Z,6.62
2019-05-19T13:18:36.021Z,6.50
2019-05-19T13:21:07.764Z,7.67
2019-05-19T13:26:10.298Z,8.03
2019-05-19T13:28:42.299Z,6.80
2019-05-19T13:31:14.381Z,6.25
2019-05-19T13:33:46.063Z,10.00
2019-05-19T13:36:18.299Z,7.70
2019-05-19T13:38:50.405Z,7.12
2019-05-19T13:41:22.312Z,6.33
2019-05-19T13:45:39.494Z,6.73
2019-05-19T13:48:11.300Z,6.00
2019-05-19T13:50:43.603Z,6.20
2019-05-19T13:53:15.330Z,6.17
2019-05-19T13:55:47.005Z,6.22
2019-05-19T13:58:18.745Z,6.28
2019-05-19T14:00:50.398Z,6.20
2019-05-19T14:03:22.058Z,6.22
2019-05-19T14:05:53.733Z,5.95
2019-05-19T14:10:56.405Z,6.25
2019-05-19T14:13:28.599Z,7.17
2019-05-19T14:16:00.601Z,6.83
2019-05-19T14:18:32.249Z,7.00
2019-05-19T14:21:03.698Z,6.05
2019-05-19T14:26:06.326Z,6.15
2019-05-19T14:28:38.030Z,5.90
2019-05-19T14:31:09.750Z,6.47
2019-05-19T14:33:41.790Z,6.10
2019-05-19T14:36:13.727Z,6.62
2019-05-19T14:41:38.454Z,6.22
2019-05-19T14:44:10.302Z,6.10
2019-05-19T14:46:42.340Z,6.20
2019-05-19T14:49:14.068Z,5.65
2019-05-19T14:51:45.772Z,5.90
2019-05-19T14:54:17.771Z,6.35
2019-05-19T14:59:20.302Z,6.30
2019-05-19T15:01:52.738Z,5.95
2019-05-19T15:06:55.963Z,5.90
2019-05-19T15:09:27.720Z,6.40
2019-05-19T15:14:31.308Z,5.87
2019-05-19T15:17:02.857Z,5.78
2019-05-19T15:19:34.738Z,6.08
2019-05-19T15:24:37.297Z,6.25
2019-05-19T15:27:08.850Z,6.85
2019-05-19T15:29:40.601Z,6.50
2019-05-19T15:32:12.757Z,5.70
2019-05-19T15:37:15.306Z,5.53
2019-05-19T15:39:47.298Z,5.72
2019-05-19T15:42:19.062Z,5.65
2019-05-19T15:44:50.901Z,6.62
2019-05-19T15:47:22.856Z,6.62
2019-05-19T15:49:54.734Z,6.12
2019-05-19T15:54:57.330Z,6.25
2019-05-19T15:57:28.983Z,5.75
2019-05-19T16:00:01.087Z,5.58
2019-05-19T16:02:32.799Z,5.72
2019-05-19T16:05:04.621Z,5.92
2019-05-19T16:12:39.108Z,5.67
2019-05-19T16:15:11.854Z,5.37
2019-05-19T16:17:43.794Z,5.83
2019-05-19T16:20:17.022Z,5.78
2019-05-19T16:22:48.783Z,6.20
2019-05-19T16:25:21.260Z,5.22
2019-05-19T16:27:52.808Z,5.40
2019-05-19T16:30:24.342Z,5.33
2019-05-19T16:32:56.428Z,6.25
2019-05-19T16:35:28.458Z,5.70
2019-05-19T16:38:00.320Z,5.30
2019-05-19T16:40:32.107Z,4.87
2019-05-19T16:43:04.257Z,5.90
2019-05-19T16:45:35.817Z,5.50
2019-05-19T16:48:07.427Z,8.53
2019-05-19T16:50:39.061Z,5.33
2019-05-19T16:53:10.741Z,6.03
2019-05-19T17:00:46.358Z,5.33
2019-05-19T17:03:18.399Z,5.50
2019-05-19T17:05:50.314Z,5.85
2019-05-19T17:08:22.551Z,5.40
2019-05-19T17:10:55.308Z,5.40
2019-05-19T17:13:26.872Z,5.37
2019-05-19T17:15:58.371Z,5.25
2019-05-19T17:18:30.066Z,5.58
2019-05-19T17:21:01.909Z,5.35
2019-05-19T17:23:33.798Z,5.17
2019-05-19T17:26:05.481Z,5.40
2019-05-19T17:28:37.336Z,5.60
2019-05-19T17:31:09.302Z,5.30
2019-05-19T17:33:40.892Z,5.53
2019-05-19T17:36:12.635Z,5.45
2019-05-19T17:38:44.776Z,5.28
2019-05-19T17:43:47.749Z,5.35
2019-05-19T17:48:50.729Z,5.17
2019-05-19T17:53:53.396Z,5.50
2019-05-19T17:56:25.460Z,4.75
2019-05-19T18:01:39.779Z,5.30
2019-05-19T18:06:42.302Z,5.28
2019-05-19T18:09:13.902Z,4.87
2019-05-19T18:11:45.422Z,5.20
2019-05-19T18:14:17.318Z,5.60
2019-05-19T18:16:49.063Z,5.28
2019-05-19T18:19:20.769Z,4.95
2019-05-19T18:24:23.417Z,4.92
2019-05-19T18:26:55.322Z,4.92
2019-05-19T18:29:31.284Z,5.00
2019-05-19T18:32:00.593Z,5.10
2019-05-19T18:34:32.431Z,5.25
2019-05-19T18:37:04.385Z,5.00
2019-05-19T18:39:36.364Z,5.30
2019-05-19T18:42:08.634Z,4.95
2019-05-19T18:44:40.349Z,4.80
2019-05-19T18:47:11.985Z,4.65
2019-05-19T18:49:43.790Z,5.30
2019-05-19T18:52:15.346Z,4.65
2019-05-19T18:54:47.311Z,4.50
2019-05-19T18:57:18.895Z,4.70
2019-05-19T18:59:50.798Z,4.67
2019-05-19T19:04:53.448Z,5.05
2019-05-19T19:07:44.334Z,4.65
2019-05-19T19:10:15.903Z,4.80
2019-05-19T19:12:47.501Z,4.90
2019-05-19T19:15:22.544Z,4.72
2019-05-19T19:17:54.623Z,6.12
2019-05-19T19:20:26.788Z,5.22
2019-05-19T19:22:58.766Z,4.17
2019-05-19T19:33:03.351Z,4.60
2019-05-19T19:35:39.101Z,4.45
2019-05-19T19:38:08.779Z,4.97
2019-05-19T19:40:40.794Z,4.90
2019-05-19T19:43:13.344Z,4.45
2019-05-19T19:45:45.050Z,4.92
2019-05-19T19:48:16.871Z,5.00
2019-05-19T19:50:50.425Z,4.25
2019-05-19T19:53:23.414Z,5.15
2019-05-19T19:55:57.710Z,4.62
2019-05-19T20:01:09.878Z,4.33
2019-05-19T20:03:41.986Z,4.33
2019-05-19T20:06:13.735Z,4.87
2019-05-19T20:11:16.698Z,4.40
2019-05-19T20:16:18.758Z,4.50
2019-05-19T20:18:50.300Z,4.90
2019-05-19T20:21:22.593Z,4.85
2019-05-19T20:23:54.312Z,4.70
2019-05-19T20:26:26.374Z,4.47
2019-05-19T20:28:58.059Z,4.35
2019-05-19T20:31:31.492Z,4.30
2019-05-19T20:36:35.323Z,5.03
2019-05-19T20:39:08.703Z,4.45
2019-05-19T20:44:11.320Z,4.30
2019-05-19T20:46:43.289Z,4.35
2019-05-19T20:49:15.502Z,4.97
2019-05-19T20:51:47.436Z,4.62
2019-05-19T20:54:19.995Z,4.42
2019-05-19T20:56:52.310Z,4.85
2019-05-19T20:59:24.038Z,4.33
2019-05-19T21:01:55.786Z,3.90
2019-05-19T21:06:58.313Z,4.40
2019-05-19T21:09:29.850Z,4.35
2019-05-19T21:12:01.706Z,4.35
2019-05-19T21:17:04.092Z,4.08
2019-05-19T21:19:35.830Z,4.40
2019-05-19T21:22:07.622Z,4.20
2019-05-19T21:24:39.323Z,4.80
2019-05-19T21:27:10.996Z,4.42
2019-05-19T21:29:42.894Z,4.60
2019-05-19T21:32:14.605Z,4.25
2019-05-19T21:34:46.498Z,4.30
2019-05-19T21:37:18.417Z,4.22
2019-05-19T21:39:50.078Z,4.10
2019-05-19T21:42:21.799Z,4.45
2019-05-19T21:47:24.331Z,4.15
2019-05-19T21:49:56.361Z,4.20
2019-05-19T21:52:27.859Z,4.53
2019-05-19T21:54:59.793Z,4.55
2019-05-19T21:57:31.432Z,4.47
2019-05-19T22:00:03.057Z,4.65
2019-05-19T22:02:34.798Z,4.25
2019-05-19T22:05:06.422Z,4.37
2019-05-19T22:08:02.459Z,4.72
2019-05-19T22:10:34.323Z,4.58
2019-05-19T22:13:05.860Z,4.90
2019-05-19T22:15:37.598Z,4.55
2019-05-19T22:18:09.308Z,4.62
2019-05-19T22:20:40.829Z,4.42
2019-05-19T22:23:12.526Z,4.03
2019-05-19T22:25:44.614Z,4.37
2019-05-19T22:28:16.363Z,4.90
2019-05-19T22:30:48.065Z,4.47
2019-05-19T22:33:20.308Z,4.33
2019-05-19T22:35:52.387Z,4.67
2019-05-19T22:38:24.835Z,4.45
2019-05-19T22:40:56.662Z,4.90
2019-05-19T22:43:28.851Z,4.33
2019-05-19T22:46:00.714Z,3.98
2019-05-19T22:51:03.310Z,4.20
2019-05-19T22:53:34.861Z,4.92
2019-05-19T22:56:06.625Z,4.30
2019-05-19T22:58:38.180Z,5.00
2019-05-19T23:01:11.046Z,5.60
2019-05-19T23:03:42.754Z,4.20
2019-05-19T23:06:14.372Z,4.80
2019-05-19T23:08:45.983Z,4.17
2019-05-19T23:11:17.703Z,4.17
2019-05-19T23:16:20.072Z,4.62
2019-05-19T23:19:54.319Z,4.70
2019-05-19T23:22:25.973Z,4.10
2019-05-19T23:24:58.057Z,4.58
2019-05-19T23:27:29.745Z,4.12
2019-05-19T23:32:32.694Z,4.25
2019-05-19T23:37:35.736Z,4.60
2019-05-19T23:42:38.782Z,3.95
2019-05-19T23:47:42.270Z,5.00
2019-05-19T23:50:14.313Z,4.33
2019-05-19T23:52:46.362Z,4.50
2019-05-19T23:55:18.050Z,4.70
2019-05-19T23:57:49.761Z,4.40
